Aviation Digital Data Service (ADDS)

Output produced by METARs form (1630 UTC 02 October 2014)
found at http://aviationweather.gov/adds/metars/
 
KCON 021607Z 0216/0312 02005KT P6SM OVC015 
     FM021700 02005KT P6SM BKN025 OVC080 
     FM021800 03003KT P6SM BKN100